Time;durP1;ratioP1;P1;durP2;ratioP2;P2;SDS_P1;SDS_P2;PMS_P1;PMS_P2;Temp;Humidity;BMP_temperature;BMP_pressure;BME280_temperature;BME280_humidity;BME280_pressure;Samples;Min_cycle;Max_cycle;Signal;HPM_P1;HPM_P2
2023/07/01 00:00:01;;;;;;;12.33;11.00;;;27.50;64.40;;;;;;4968392;28;20898;-84
2023/07/01 00:02:31;;;;;;;12.57;11.37;;;27.40;64.30;;;;;;4969769;28;20537;-85
2023/07/01 00:04:59;;;;;;;11.53;10.33;;;27.40;64.30;;;;;;4972685;28;21040;-85
2023/07/01 00:07:28;;;;;;;12.93;11.73;;;27.40;64.40;;;;;;4971957;28;20492;-84
2023/07/01 00:09:57;;;;;;;13.77;11.67;;;27.40;64.30;;;;;;4972973;28;20478;-84
2023/07/01 00:12:26;;;;;;;12.10;10.90;;;27.40;64.40;;;;;;4972165;28;20524;-85
2023/07/01 00:14:54;;;;;;;11.37;10.30;;;27.40;64.30;;;;;;4970380;28;20983;-85
2023/07/01 00:17:22;;;;;;;12.00;10.80;;;27.40;64.40;;;;;;4971517;28;20532;-85
2023/07/01 00:19:50;;;;;;;11.60;10.40;;;27.40;64.40;;;;;;4972947;28;20482;-84
2023/07/01 00:22:18;;;;;;;11.10;10.00;;;27.40;64.40;;;;;;4973412;28;20977;-85
2023/07/01 00:24:46;;;;;;;13.23;12.03;;;27.40;64.40;;;;;;4971624;28;20498;-84
2023/07/01 00:27:16;;;;;;;12.67;11.47;;;27.40;64.40;;;;;;4972430;28;20491;-85
2023/07/01 00:29:44;;;;;;;13.20;10.57;;;27.40;64.40;;;;;;4972016;28;20473;-84
2023/07/01 00:32:12;;;;;;;12.70;11.50;;;27.40;64.40;;;;;;4972918;28;20513;-84
2023/07/01 00:34:41;;;;;;;12.40;11.13;;;27.40;64.40;;;;;;4985070;28;20460;-85
2023/07/01 00:37:09;;;;;;;11.50;10.33;;;27.40;64.50;;;;;;4968898;28;20462;-84
2023/07/01 00:39:37;;;;;;;12.00;10.73;;;27.40;64.50;;;;;;4970948;28;20471;-85
2023/07/01 00:42:06;;;;;;;11.57;10.27;;;27.40;64.50;;;;;;4967613;28;20513;-84
2023/07/01 00:44:36;;;;;;;10.80;9.70;;;27.40;64.40;;;;;;4956213;28;20524;-85
2023/07/01 00:47:06;;;;;;;12.03;10.70;;;27.40;64.40;;;;;;4972397;28;20459;-84
2023/07/01 00:49:34;;;;;;;11.97;10.67;;;27.40;64.40;;;;;;4972417;28;20894;-84
2023/07/01 00:52:02;;;;;;;12.50;11.17;;;27.40;64.40;;;;;;4972189;28;20451;-84
2023/07/01 00:54:31;;;;;;;12.77;10.83;;;27.40;64.40;;;;;;4961624;28;20470;-85
2023/07/01 00:57:03;;;;;;;12.47;10.47;;;27.40;64.60;;;;;;4971081;28;20463;-85
2023/07/01 00:59:32;;;;;;;11.47;10.30;;;27.40;64.50;;;;;;4958950;28;20468;-84
2023/07/01 01:02:07;;;;;;;11.27;10.17;;;27.40;64.50;;;;;;4970234;28;20874;-84
2023/07/01 01:04:44;;;;;;;11.20;10.10;;;27.30;64.50;;;;;;4971202;28;20463;-85
2023/07/01 01:07:18;;;;;;;11.10;10.00;;;27.30;64.50;;;;;;4960822;28;20497;-84
2023/07/01 01:09:52;;;;;;;10.73;9.63;;;27.30;64.50;;;;;;4943863;28;20516;-84
2023/07/01 01:12:25;;;;;;;11.30;10.17;;;27.30;64.40;;;;;;4954998;28;20670;-84
2023/07/01 01:14:54;;;;;;;11.10;9.90;;;27.30;64.40;;;;;;4978759;28;20527;-84
2023/07/01 01:17:27;;;;;;;10.37;8.70;;;27.30;64.40;;;;;;4960296;28;21577;-84
2023/07/01 01:20:00;;;;;;;9.80;8.90;;;27.30;64.40;;;;;;4964212;28;20458;-84
2023/07/01 01:22:35;;;;;;;10.40;9.10;;;27.30;64.50;;;;;;4951915;28;20997;-84
2023/07/01 01:25:24;;;;;;;9.93;9.03;;;27.30;64.40;;;;;;4971753;28;20548;-85
2023/07/01 01:27:56;;;;;;;10.07;8.50;;;27.30;64.40;;;;;;4960242;28;20466;-84
2023/07/01 01:30:25;;;;;;;10.27;9.17;;;27.30;64.30;;;;;;4972101;28;20478;-84
2023/07/01 01:32:53;;;;;;;12.57;10.37;;;27.30;64.40;;;;;;4972346;28;20454;-85
2023/07/01 01:35:21;;;;;;;10.30;9.30;;;27.30;64.40;;;;;;4957078;28;20564;-84
2023/07/01 01:37:55;;;;;;;9.37;8.47;;;27.30;64.30;;;;;;4971136;28;20578;-84
2023/07/01 01:40:28;;;;;;;9.37;8.47;;;27.30;64.40;;;;;;4970364;28;20459;-84
2023/07/01 01:43:05;;;;;;;9.70;8.80;;;27.30;64.30;;;;;;4972090;28;20444;-84
2023/07/01 01:45:35;;;;;;;11.40;9.17;;;27.30;64.30;;;;;;4971522;28;20469;-84
2023/07/01 01:48:05;;;;;;;10.23;8.97;;;27.30;64.30;;;;;;4971031;28;20524;-84
2023/07/01 01:50:39;;;;;;;8.80;7.70;;;27.30;64.30;;;;;;4971915;28;20568;-84
2023/07/01 01:53:10;;;;;;;9.80;8.80;;;27.30;64.30;;;;;;4968942;28;20483;-84
2023/07/01 01:55:39;;;;;;;9.40;8.50;;;27.30;64.30;;;;;;4969674;28;20460;-84
2023/07/01 01:58:10;;;;;;;9.60;8.60;;;27.30;64.30;;;;;;4950475;28;20467;-84
2023/07/01 02:00:38;;;;;;;9.60;8.70;;;27.30;64.30;;;;;;4970654;28;20470;-85
2023/07/01 02:03:07;;;;;;;9.03;8.13;;;27.30;64.30;;;;;;4951012;28;20484;-84
2023/07/01 02:05:36;;;;;;;8.63;7.87;;;27.30;64.30;;;;;;4955911;28;20787;-85
2023/07/01 02:08:05;;;;;;;10.27;9.20;;;27.30;64.30;;;;;;4971553;28;21354;-84
2023/07/01 02:10:33;;;;;;;11.80;8.43;;;27.30;64.30;;;;;;4971388;28;20478;-84
2023/07/01 02:13:02;;;;;;;8.90;8.00;;;27.30;64.30;;;;;;4971523;28;20474;-84
2023/07/01 02:15:32;;;;;;;9.53;8.53;;;27.30;64.40;;;;;;4959009;28;20471;-84
2023/07/01 02:18:00;;;;;;;8.57;7.67;;;27.30;64.30;;;;;;4971063;28;20463;-84
2023/07/01 02:20:28;;;;;;;8.10;7.30;;;27.30;64.30;;;;;;4972279;28;20459;-84
2023/07/01 02:22:56;;;;;;;8.63;7.73;;;27.30;64.30;;;;;;4972020;28;20466;-84
2023/07/01 02:25:26;;;;;;;8.20;6.90;;;27.30;64.30;;;;;;4970158;28;20543;-84
2023/07/01 02:27:54;;;;;;;8.80;8.00;;;27.30;64.30;;;;;;4970596;28;20892;-84
2023/07/01 02:30:23;;;;;;;9.13;7.83;;;27.30;64.30;;;;;;4972133;28;20861;-84
2023/07/01 02:32:53;;;;;;;7.40;6.50;;;27.30;64.30;;;;;;4954046;28;20514;-84
2023/07/01 02:35:21;;;;;;;7.97;7.07;;;27.30;64.30;;;;;;4963860;28;20463;-85
2023/07/01 02:37:49;;;;;;;9.50;7.60;;;27.30;64.30;;;;;;4972022;28;20485;-84
2023/07/01 02:40:18;;;;;;;8.23;7.40;;;27.30;64.30;;;;;;4970676;28;20470;-84
2023/07/01 02:42:46;;;;;;;7.60;6.90;;;27.30;64.30;;;;;;4969926;28;20469;-85
2023/07/01 02:45:14;;;;;;;7.70;7.00;;;27.30;64.30;;;;;;4971646;28;20509;-85
2023/07/01 02:47:42;;;;;;;6.90;6.27;;;27.30;64.30;;;;;;4971019;28;20789;-85
2023/07/01 02:50:12;;;;;;;7.43;6.17;;;27.30;64.30;;;;;;4971481;28;20486;-85
2023/07/01 02:52:40;;;;;;;6.47;5.87;;;27.30;64.30;;;;;;4964739;28;20485;-85
2023/07/01 02:55:10;;;;;;;7.87;7.17;;;27.20;64.20;;;;;;4954461;28;20873;-85
2023/07/01 02:57:38;;;;;;;9.90;7.30;;;27.20;64.30;;;;;;4970071;28;20470;-84
2023/07/01 03:00:11;;;;;;;6.87;5.97;;;27.20;64.30;;;;;;4961490;28;21012;-85
2023/07/01 03:02:39;;;;;;;7.40;6.67;;;27.20;64.30;;;;;;4966984;28;22302;-84
2023/07/01 03:05:09;;;;;;;8.50;6.67;;;27.20;64.30;;;;;;4974985;28;20465;-84
2023/07/01 03:07:39;;;;;;;8.03;6.57;;;27.20;64.20;;;;;;4973274;28;20494;-84
2023/07/01 03:10:08;;;;;;;6.63;5.90;;;27.20;64.30;;;;;;4972438;28;21164;-84
2023/07/01 03:12:36;;;;;;;6.30;5.80;;;27.20;64.30;;;;;;4974891;28;20473;-85
2023/07/01 03:15:05;;;;;;;6.30;5.70;;;27.20;64.30;;;;;;4966420;28;21944;-85
2023/07/01 03:17:33;;;;;;;7.60;6.30;;;27.20;64.30;;;;;;4973348;28;20457;-84
2023/07/01 03:20:02;;;;;;;7.53;6.73;;;27.20;64.30;;;;;;4974380;28;20458;-84
2023/07/01 03:22:30;;;;;;;6.20;5.53;;;27.20;64.30;;;;;;4978079;28;20852;-84
2023/07/01 03:25:02;;;;;;;6.70;6.10;;;27.20;64.30;;;;;;4958409;28;20964;-84
2023/07/01 03:27:30;;;;;;;6.50;5.90;;;27.20;64.30;;;;;;4972949;28;21000;-84
2023/07/01 03:29:59;;;;;;;6.03;5.47;;;27.20;64.30;;;;;;4974865;28;20470;-85
2023/07/01 03:32:27;;;;;;;8.33;5.83;;;27.20;64.30;;;;;;4972527;28;20811;-84
2023/07/01 03:34:56;;;;;;;5.83;5.23;;;27.20;64.30;;;;;;4974557;28;20565;-84
2023/07/01 03:37:24;;;;;;;6.60;5.90;;;27.10;64.30;;;;;;4973800;28;20870;-84
2023/07/01 03:39:52;;;;;;;5.83;5.33;;;27.10;64.30;;;;;;4974418;28;20536;-84
2023/07/01 03:42:22;;;;;;;6.53;4.87;;;27.10;64.30;;;;;;4986110;28;20874;-85
2023/07/01 03:44:50;;;;;;;6.50;5.13;;;27.10;64.20;;;;;;4954469;28;20545;-84
2023/07/01 03:47:19;;;;;;;5.30;4.80;;;27.10;64.30;;;;;;4972599;28;20598;-84
2023/07/01 03:49:47;;;;;;;4.87;4.40;;;27.10;64.20;;;;;;4973834;28;20468;-84
2023/07/01 03:52:15;;;;;;;5.77;4.53;;;27.10;64.30;;;;;;4972222;28;20540;-84
2023/07/01 03:54:43;;;;;;;5.30;4.80;;;27.10;64.20;;;;;;4974471;28;21023;-85
2023/07/01 03:57:11;;;;;;;7.07;5.50;;;27.10;64.20;;;;;;4968533;28;20819;-85
2023/07/01 03:59:41;;;;;;;5.80;5.20;;;27.10;64.20;;;;;;4974004;28;20469;-85
2023/07/01 04:02:10;;;;;;;5.60;5.00;;;27.10;64.20;;;;;;4959765;28;20558;-84
2023/07/01 04:04:38;;;;;;;5.50;5.00;;;27.10;64.20;;;;;;4971767;28;20997;-84
2023/07/01 04:07:07;;;;;;;6.37;4.70;;;27.10;64.20;;;;;;4970499;28;20494;-84
2023/07/01 04:09:35;;;;;;;4.87;4.47;;;27.10;64.20;;;;;;4972876;28;20498;-84
2023/07/01 04:12:04;;;;;;;5.17;4.77;;;27.10;64.20;;;;;;4971363;28;20474;-84
2023/07/01 04:14:32;;;;;;;4.90;4.40;;;27.10;64.20;;;;;;4971472;28;20467;-85
2023/07/01 04:17:02;;;;;;;5.57;5.07;;;27.10;64.20;;;;;;4973641;28;20550;-84
2023/07/01 04:19:31;;;;;;;4.43;3.40;;;27.10;64.20;;;;;;4974067;28;20462;-84
2023/07/01 04:21:59;;;;;;;4.87;4.40;;;27.10;64.20;;;;;;4972648;28;20480;-84
2023/07/01 04:24:27;;;;;;;5.00;3.87;;;27.10;64.20;;;;;;4972808;28;20514;-85
2023/07/01 04:26:55;;;;;;;4.67;4.27;;;27.10;64.20;;;;;;4973019;28;20587;-85
2023/07/01 04:29:23;;;;;;;4.50;4.03;;;27.10;64.20;;;;;;4972804;28;20822;-84
2023/07/01 04:31:52;;;;;;;4.60;3.87;;;27.10;64.20;;;;;;4971132;28;20509;-85
2023/07/01 04:34:21;;;;;;;5.37;3.87;;;27.10;64.10;;;;;;4972943;28;20517;-84
2023/07/01 04:36:49;;;;;;;4.40;4.10;;;27.10;64.10;;;;;;4973592;28;20447;-84
2023/07/01 04:39:19;;;;;;;4.20;3.80;;;27.10;64.10;;;;;;4971349;28;20466;-84
2023/07/01 04:41:47;;;;;;;3.97;3.67;;;27.10;64.10;;;;;;4972023;28;20509;-85
2023/07/01 04:44:16;;;;;;;4.23;3.83;;;27.10;64.10;;;;;;4973995;28;20501;-85
2023/07/01 04:46:44;;;;;;;3.97;3.63;;;27.10;64.00;;;;;;4972533;28;20529;-84
2023/07/01 04:49:13;;;;;;;3.83;3.03;;;27.10;64.10;;;;;;4950809;28;20465;-85
2023/07/01 04:51:42;;;;;;;6.40;3.80;;;27.10;64.00;;;;;;4970614;28;20482;-85
2023/07/01 04:54:10;;;;;;;3.60;3.30;;;27.10;64.10;;;;;;4973704;28;20450;-85
2023/07/01 04:56:39;;;;;;;4.13;3.70;;;27.10;64.10;;;;;;4971640;28;20465;-85
2023/07/01 04:59:07;;;;;;;3.73;3.43;;;27.10;64.00;;;;;;4971406;28;20934;-85
2023/07/01 05:01:35;;;;;;;4.07;3.67;;;27.10;64.00;;;;;;4969791;28;20460;-85
2023/07/01 05:04:04;;;;;;;3.50;3.00;;;27.10;64.00;;;;;;4970442;28;20466;-85
2023/07/01 05:06:32;;;;;;;4.10;2.90;;;27.10;64.00;;;;;;4969721;28;20973;-84
2023/07/01 05:09:02;;;;;;;3.70;3.50;;;27.10;64.00;;;;;;4969021;28;20468;-84
2023/07/01 05:11:30;;;;;;;4.70;3.10;;;27.10;64.00;;;;;;4971610;28;20503;-84
2023/07/01 05:13:59;;;;;;;4.37;3.97;;;27.10;64.00;;;;;;4972464;28;20505;-85
2023/07/01 05:16:27;;;;;;;3.80;3.50;;;27.10;64.00;;;;;;4972284;28;20452;-85
2023/07/01 05:18:56;;;;;;;4.40;3.30;;;27.10;63.90;;;;;;4971303;28;20969;-85
2023/07/01 05:21:25;;;;;;;4.07;3.67;;;27.10;63.90;;;;;;4972997;28;20504;-84
2023/07/01 05:23:53;;;;;;;3.57;3.17;;;27.10;63.90;;;;;;4969878;28;20478;-85
2023/07/01 05:26:23;;;;;;;3.20;2.90;;;27.10;63.90;;;;;;4972893;28;20467;-84
2023/07/01 05:28:51;;;;;;;3.60;3.30;;;27.10;63.90;;;;;;4971584;28;20468;-84
2023/07/01 05:31:19;;;;;;;2.97;2.73;;;27.10;63.90;;;;;;4969915;28;20561;-85
2023/07/01 05:33:48;;;;;;;3.53;3.30;;;27.10;63.90;;;;;;4972263;28;20462;-84
2023/07/01 05:36:16;;;;;;;3.33;3.03;;;27.10;63.90;;;;;;4970437;28;20459;-85
2023/07/01 05:38:44;;;;;;;3.30;3.10;;;27.10;63.90;;;;;;4972599;28;20532;-84
2023/07/01 05:41:12;;;;;;;4.20;3.80;;;27.10;63.90;;;;;;4958671;28;20495;-84
2023/07/01 05:43:41;;;;;;;3.30;3.07;;;27.10;63.90;;;;;;4972046;28;20509;-85
2023/07/01 05:46:10;;;;;;;3.00;2.80;;;27.10;63.80;;;;;;4972771;28;20459;-84
2023/07/01 05:48:38;;;;;;;4.80;3.63;;;27.10;63.80;;;;;;4972402;28;20500;-85
2023/07/01 05:51:06;;;;;;;3.73;3.43;;;27.10;63.80;;;;;;4970759;28;24287;-85
2023/07/01 05:53:34;;;;;;;2.87;2.67;;;27.10;63.80;;;;;;4972168;28;21049;-85
2023/07/01 05:56:05;;;;;;;3.20;2.90;;;27.10;63.80;;;;;;4972345;28;20455;-84
2023/07/01 05:58:33;;;;;;;3.13;2.93;;;27.10;63.80;;;;;;4970090;28;20464;-84
2023/07/01 06:01:03;;;;;;;3.53;3.20;;;27.20;63.80;;;;;;4965479;28;20471;-85
2023/07/01 06:03:32;;;;;;;3.53;3.23;;;27.20;63.90;;;;;;4963022;28;20508;-84
2023/07/01 06:06:00;;;;;;;3.70;2.80;;;27.20;63.80;;;;;;4970956;28;20479;-84
2023/07/01 06:08:28;;;;;;;3.50;3.20;;;27.20;63.80;;;;;;4970881;28;20614;-84
2023/07/01 06:10:57;;;;;;;2.80;2.60;;;27.20;63.80;;;;;;4969281;28;21057;-85
2023/07/01 06:13:26;;;;;;;2.50;2.30;;;27.20;63.80;;;;;;4971460;28;20487;-85
2023/07/01 06:15:54;;;;;;;2.80;2.60;;;27.20;63.80;;;;;;4969886;28;20523;-85
2023/07/01 06:18:24;;;;;;;3.10;2.60;;;27.20;63.70;;;;;;4971241;28;20509;-84
2023/07/01 06:20:52;;;;;;;3.67;2.80;;;27.20;63.70;;;;;;4966639;28;21076;-85
2023/07/01 06:23:20;;;;;;;3.30;2.70;;;27.20;63.60;;;;;;4968072;28;20544;-84
2023/07/01 06:25:48;;;;;;;3.47;3.27;;;27.20;63.70;;;;;;4968299;28;21150;-85
2023/07/01 06:28:17;;;;;;;3.20;3.00;;;27.20;63.70;;;;;;4968731;28;21427;-85
2023/07/01 06:30:45;;;;;;;2.77;2.57;;;27.20;63.70;;;;;;4970346;28;20456;-85
2023/07/01 06:33:14;;;;;;;2.87;2.57;;;27.20;63.60;;;;;;4968137;28;20483;-84
2023/07/01 06:35:45;;;;;;;2.70;2.50;;;27.20;63.60;;;;;;4969130;28;20549;-84
2023/07/01 06:38:13;;;;;;;3.37;2.67;;;27.20;63.60;;;;;;4970743;28;20546;-85
2023/07/01 06:40:42;;;;;;;3.30;3.00;;;27.20;63.60;;;;;;4970294;28;20515;-86
2023/07/01 06:43:10;;;;;;;2.90;2.70;;;27.30;63.60;;;;;;4971267;28;20537;-84
2023/07/01 06:45:38;;;;;;;3.10;2.80;;;27.20;63.60;;;;;;4972547;28;21778;-83
2023/07/01 06:48:07;;;;;;;3.50;3.20;;;27.30;63.50;;;;;;4972272;28;20503;-84
2023/07/01 06:50:35;;;;;;;2.60;2.40;;;27.30;63.50;;;;;;4973055;28;20519;-85
2023/07/01 06:53:05;;;;;;;2.63;2.43;;;27.30;63.50;;;;;;4973802;28;20908;-86
2023/07/01 06:55:34;;;;;;;3.30;3.00;;;27.30;63.60;;;;;;4972701;28;20460;-85
2023/07/01 06:58:03;;;;;;;2.90;2.70;;;27.30;63.50;;;;;;4972157;28;20467;-85
2023/07/01 07:00:31;;;;;;;3.17;2.80;;;27.30;63.50;;;;;;4975583;28;20471;-86
2023/07/01 07:03:00;;;;;;;3.40;3.10;;;27.30;63.50;;;;;;4971968;28;20518;-86
2023/07/01 07:05:29;;;;;;;3.57;3.27;;;27.30;63.40;;;;;;4973529;28;20452;-85
2023/07/01 07:07:58;;;;;;;3.00;2.77;;;27.30;63.40;;;;;;4972349;28;20527;-86
2023/07/01 07:10:27;;;;;;;3.10;2.63;;;27.30;63.30;;;;;;4973622;28;20459;-86
2023/07/01 07:12:55;;;;;;;3.27;2.97;;;27.30;63.30;;;;;;4969305;28;20480;-83
2023/07/01 07:15:24;;;;;;;3.73;2.90;;;27.30;63.30;;;;;;4974297;28;20460;-84
2023/07/01 07:17:52;;;;;;;5.70;3.20;;;27.30;63.30;;;;;;4971527;28;20519;-84
2023/07/01 07:20:21;;;;;;;3.87;2.80;;;27.30;63.30;;;;;;4974652;28;20582;-84
2023/07/01 07:22:49;;;;;;;4.30;3.20;;;27.30;63.30;;;;;;4971959;28;20472;-84
2023/07/01 07:25:18;;;;;;;3.40;3.10;;;27.30;63.30;;;;;;4974325;28;20559;-84
2023/07/01 07:27:47;;;;;;;3.03;2.83;;;27.30;63.30;;;;;;4971132;28;20509;-83
2023/07/01 07:30:15;;;;;;;4.67;3.50;;;27.30;63.30;;;;;;4971294;28;20452;-84
2023/07/01 07:32:44;;;;;;;3.73;3.43;;;27.30;63.40;;;;;;4973729;28;20483;-84
2023/07/01 07:35:12;;;;;;;3.67;3.27;;;27.30;63.30;;;;;;4970712;28;20464;-84
2023/07/01 07:37:40;;;;;;;2.90;2.70;;;27.30;63.30;;;;;;4973443;28;20460;-84
2023/07/01 07:40:09;;;;;;;3.20;3.00;;;27.30;63.30;;;;;;4970988;28;20452;-84
2023/07/01 07:42:38;;;;;;;4.57;3.50;;;27.30;63.20;;;;;;4972749;28;20462;-84
2023/07/01 07:45:08;;;;;;;2.77;2.57;;;27.30;63.20;;;;;;4970484;28;20472;-84
2023/07/01 07:47:36;;;;;;;3.97;2.90;;;27.30;63.20;;;;;;4968380;28;20535;-83
2023/07/01 07:50:05;;;;;;;3.60;3.30;;;27.40;63.20;;;;;;4970628;28;20463;-84
2023/07/01 07:52:33;;;;;;;2.80;2.60;;;27.30;63.20;;;;;;4974207;28;20439;-84
2023/07/01 07:55:02;;;;;;;4.13;3.83;;;27.30;63.20;;;;;;4971506;28;20470;-82
2023/07/01 07:57:30;;;;;;;2.80;2.60;;;27.40;63.20;;;;;;4968459;28;20554;-85
2023/07/01 07:59:59;;;;;;;2.90;2.70;;;27.40;63.20;;;;;;4973011;28;20463;-86
2023/07/01 08:02:29;;;;;;;4.70;3.60;;;27.40;63.10;;;;;;4970259;28;20476;-84
2023/07/01 08:04:57;;;;;;;5.53;3.40;;;27.40;63.00;;;;;;4966976;28;20474;-85
2023/07/01 08:07:26;;;;;;;3.40;2.90;;;27.40;63.00;;;;;;4968825;28;20504;-80
2023/07/01 08:09:54;;;;;;;4.77;3.13;;;27.40;63.00;;;;;;4971646;28;21124;-84
2023/07/01 08:12:22;;;;;;;2.90;2.70;;;27.40;62.90;;;;;;4971994;28;20490;-87
2023/07/01 08:14:50;;;;;;;4.40;3.07;;;27.40;62.80;;;;;;4967894;28;20887;-84
2023/07/01 08:17:18;;;;;;;3.40;3.10;;;27.40;62.70;;;;;;4969335;28;20505;-84
2023/07/01 08:19:48;;;;;;;4.00;3.37;;;27.40;62.70;;;;;;4968222;28;20474;-82
2023/07/01 08:22:18;;;;;;;3.27;2.97;;;27.40;62.70;;;;;;4970482;28;20468;-85
2023/07/01 08:24:46;;;;;;;3.10;2.90;;;27.40;62.60;;;;;;4967725;28;20474;-85
2023/07/01 08:27:14;;;;;;;3.00;2.80;;;27.30;62.60;;;;;;4967119;28;20982;-86
2023/07/01 08:29:42;;;;;;;3.17;2.90;;;27.40;62.60;;;;;;4970253;28;20461;-85
2023/07/01 08:32:11;;;;;;;3.97;3.50;;;27.40;62.70;;;;;;4970243;28;20560;-85
2023/07/01 08:34:39;;;;;;;3.03;2.80;;;27.30;62.70;;;;;;4970010;28;20549;-85
2023/07/01 08:37:09;;;;;;;3.30;3.00;;;27.40;62.50;;;;;;4974766;28;20488;-85
2023/07/01 08:39:37;;;;;;;4.43;2.87;;;27.40;62.40;;;;;;4969530;28;20457;-85
2023/07/01 08:42:10;;;;;;;4.27;3.17;;;27.40;62.20;;;;;;4971506;28;20522;-85
2023/07/01 08:44:40;;;;;;;3.27;2.97;;;27.40;62.20;;;;;;4972281;28;20467;-87
2023/07/01 08:47:09;;;;;;;3.47;3.17;;;27.40;62.00;;;;;;4969435;28;20867;-86
2023/07/01 08:49:39;;;;;;;3.67;2.90;;;27.40;62.00;;;;;;4957064;28;20549;-85
2023/07/01 08:52:11;;;;;;;3.73;2.87;;;27.40;62.10;;;;;;4969758;28;20464;-85
2023/07/01 08:54:41;;;;;;;3.07;2.87;;;27.40;62.10;;;;;;4969306;28;20891;-87
2023/07/01 08:57:10;;;;;;;3.23;2.90;;;27.40;61.80;;;;;;4968882;28;20472;-86
2023/07/01 08:59:39;;;;;;;3.43;3.13;;;27.40;61.50;;;;;;4971924;28;20467;-85
2023/07/01 09:02:08;;;;;;;3.67;3.40;;;27.40;61.20;;;;;;4970491;28;20467;-85
2023/07/01 09:04:38;;;;;;;3.83;3.37;;;27.40;60.90;;;;;;4969796;28;20475;-82
2023/07/01 09:07:08;;;;;;;3.10;2.90;;;27.40;61.00;;;;;;4971705;28;20505;-84
2023/07/01 09:09:38;;;;;;;3.83;3.43;;;27.40;61.00;;;;;;4969935;28;20518;-84
2023/07/01 09:12:07;;;;;;;3.30;3.00;;;27.40;61.00;;;;;;4968981;28;20471;-85
2023/07/01 09:14:59;;;;;;;3.67;3.37;;;27.40;61.00;;;;;;4968603;28;20477;-84
2023/07/01 09:17:28;;;;;;;3.13;2.93;;;27.40;61.00;;;;;;4972213;28;20496;-84
2023/07/01 09:20:00;;;;;;;3.50;3.30;;;27.40;61.10;;;;;;4970861;28;20463;-84
2023/07/01 09:22:30;;;;;;;3.07;2.77;;;27.40;61.00;;;;;;4972757;28;20571;-83
2023/07/01 09:24:59;;;;;;;3.93;3.00;;;27.40;60.90;;;;;;4968710;28;21391;-86
2023/07/01 09:27:41;;;;;;;3.37;2.73;;;27.40;61.00;;;;;;4971763;28;20469;-85
2023/07/01 09:30:25;;;;;;;3.47;3.27;;;27.40;60.90;;;;;;4969760;28;20469;-87
2023/07/01 09:33:08;;;;;;;3.23;3.00;;;27.40;60.70;;;;;;4968271;28;20459;-87
2023/07/01 09:35:42;;;;;;;2.73;2.53;;;27.40;60.60;;;;;;4966805;28;20468;-87
2023/07/01 09:38:11;;;;;;;2.90;2.43;;;27.40;60.70;;;;;;4964921;28;20547;-84
2023/07/01 09:40:40;;;;;;;3.23;2.90;;;27.40;60.60;;;;;;4968446;28;20521;-82
2023/07/01 09:43:08;;;;;;;4.70;2.90;;;27.40;60.50;;;;;;4970382;28;20440;-82
2023/07/01 09:45:36;;;;;;;3.70;2.53;;;27.50;60.40;;;;;;4971716;28;20456;-82
2023/07/01 09:48:12;;;;;;;3.50;2.90;;;27.50;60.50;;;;;;4964049;28;21266;-83
2023/07/01 09:50:41;;;;;;;3.90;2.90;;;27.40;60.50;;;;;;4968669;28;21014;-83
2023/07/01 09:53:21;;;;;;;3.97;3.50;;;27.50;60.50;;;;;;4971300;28;20460;-83
2023/07/01 09:55:49;;;;;;;3.30;2.80;;;27.40;60.60;;;;;;4968984;28;20965;-83
2023/07/01 09:58:18;;;;;;;2.93;2.60;;;27.40;60.60;;;;;;4965379;28;20530;-83
2023/07/01 10:00:46;;;;;;;3.40;2.80;;;27.40;60.60;;;;;;4967908;28;20460;-82
2023/07/01 10:03:16;;;;;;;2.87;2.67;;;27.40;60.60;;;;;;4968524;28;20543;-83
2023/07/01 10:05:45;;;;;;;2.20;2.10;;;27.50;60.70;;;;;;4965764;28;20469;-83
2023/07/01 10:08:14;;;;;;;3.47;2.83;;;27.40;60.80;;;;;;4965168;28;20527;-83
2023/07/01 10:10:44;;;;;;;2.40;2.30;;;27.50;60.80;;;;;;4971195;28;20458;-83
2023/07/01 10:13:13;;;;;;;2.80;2.60;;;27.50;60.60;;;;;;4970666;28;20464;-83
2023/07/01 10:15:42;;;;;;;3.30;3.00;;;27.60;60.40;;;;;;4973092;28;20476;-82
2023/07/01 10:18:21;;;;;;;3.20;3.00;;;27.60;60.00;;;;;;4973464;28;20500;-82
2023/07/01 10:20:51;;;;;;;3.03;2.83;;;27.60;59.80;;;;;;4973791;28;20559;-83
2023/07/01 10:23:20;;;;;;;2.90;2.70;;;27.60;59.50;;;;;;4975219;28;20478;-83
2023/07/01 10:25:49;;;;;;;2.97;2.77;;;27.60;59.20;;;;;;4975229;28;20449;-82
2023/07/01 10:28:27;;;;;;;3.00;2.80;;;27.60;59.10;;;;;;4973171;28;20457;-83
2023/07/01 10:31:14;;;;;;;3.10;2.90;;;27.70;58.90;;;;;;4976613;28;20437;-82
2023/07/01 10:33:58;;;;;;;2.90;2.70;;;27.70;58.70;;;;;;4972065;28;20499;-82
2023/07/01 10:36:26;;;;;;;4.40;3.00;;;27.60;58.50;;;;;;4974325;28;20488;-82
2023/07/01 10:39:32;;;;;;;4.43;2.87;;;27.60;58.30;;;;;;4968405;28;21140;-81
2023/07/01 10:42:02;;;;;;;2.77;2.57;;;27.60;58.30;;;;;;4973862;28;20482;-82
2023/07/01 10:44:30;;;;;;;3.43;3.13;;;27.60;58.40;;;;;;4971890;28;20976;-81
2023/07/01 10:47:15;;;;;;;3.93;3.03;;;27.60;58.40;;;;;;4973124;28;20469;-80
2023/07/01 10:50:06;;;;;;;2.60;2.30;;;27.60;58.40;;;;;;4974623;28;20467;-80
2023/07/01 10:53:01;;;;;;;3.60;2.73;;;27.70;58.50;;;;;;4973633;28;20462;-79
2023/07/01 10:55:36;;;;;;;3.13;2.83;;;27.70;58.50;;;;;;4976389;28;20563;-80
2023/07/01 10:58:21;;;;;;;4.73;3.27;;;27.70;58.60;;;;;;4973041;28;20602;-79
2023/07/01 11:00:49;;;;;;;3.43;3.23;;;27.70;58.40;;;;;;4973590;28;20552;-79
2023/07/01 11:03:55;;;;;;;3.10;2.90;;;27.70;58.60;;;;;;4974944;28;20449;-79
2023/07/01 11:06:23;;;;;;;3.77;3.50;;;27.70;58.50;;;;;;4971208;28;20467;-79
2023/07/01 11:08:53;;;;;;;3.20;3.00;;;27.70;58.40;;;;;;4970950;28;20493;-79
2023/07/01 11:11:23;;;;;;;2.83;2.63;;;27.70;58.20;;;;;;4970572;28;20472;-82
2023/07/01 11:14:02;;;;;;;3.10;2.87;;;27.80;58.10;;;;;;4973097;28;20472;-79
2023/07/01 11:16:32;;;;;;;3.43;3.10;;;27.80;57.70;;;;;;4970111;28;20457;-79
2023/07/01 11:19:03;;;;;;;3.23;2.93;;;27.80;57.70;;;;;;4971733;28;20472;-81
2023/07/01 11:21:32;;;;;;;4.00;3.70;;;27.70;57.70;;;;;;4958016;28;20472;-80
2023/07/01 11:24:03;;;;;;;2.80;2.60;;;27.70;57.70;;;;;;4961114;28;20993;-81
2023/07/01 11:26:33;;;;;;;2.90;2.70;;;27.70;57.80;;;;;;4973600;28;20466;-81
2023/07/01 11:29:08;;;;;;;3.07;2.87;;;27.70;57.90;;;;;;4973970;28;20481;-81
2023/07/01 11:31:37;;;;;;;3.23;3.03;;;27.70;57.90;;;;;;4973408;28;20490;-81
2023/07/01 11:34:05;;;;;;;2.93;2.73;;;27.70;58.00;;;;;;4971611;28;20950;-81
2023/07/01 11:36:38;;;;;;;3.23;3.03;;;27.70;58.10;;;;;;4973783;28;20481;-81
2023/07/01 11:39:08;;;;;;;2.87;2.67;;;27.70;58.10;;;;;;4967508;28;20465;-80
2023/07/01 11:41:37;;;;;;;3.33;3.03;;;27.70;58.20;;;;;;4970553;28;20452;-80
2023/07/01 11:44:09;;;;;;;2.87;2.67;;;27.70;58.30;;;;;;4970630;28;20970;-80
2023/07/01 11:46:39;;;;;;;3.37;3.13;;;27.70;58.40;;;;;;4968768;28;20468;-80
2023/07/01 11:49:14;;;;;;;2.67;2.50;;;27.70;58.50;;;;;;4969193;28;20463;-80
2023/07/01 11:51:44;;;;;;;3.07;2.83;;;27.70;58.00;;;;;;4970183;28;20520;-81
2023/07/01 11:54:13;;;;;;;2.80;2.60;;;27.70;57.50;;;;;;4973735;28;20556;-81
2023/07/01 11:56:43;;;;;;;3.20;2.90;;;27.70;57.50;;;;;;4969155;28;20495;-80
2023/07/01 11:59:29;;;;;;;3.37;3.07;;;27.60;57.30;;;;;;4969594;28;20969;-81
2023/07/01 12:01:57;;;;;;;3.20;3.00;;;27.70;57.10;;;;;;4954599;28;20580;-80
2023/07/01 12:04:25;;;;;;;3.17;2.87;;;27.70;56.70;;;;;;4967167;28;21059;-81
2023/07/01 12:07:06;;;;;;;2.83;2.63;;;27.60;56.90;;;;;;4969018;28;20500;-81
2023/07/01 12:09:35;;;;;;;4.87;3.23;;;27.60;57.10;;;;;;4972371;28;20457;-81
2023/07/01 12:12:04;;;;;;;4.60;3.30;;;27.60;57.20;;;;;;4973164;28;20441;-81
2023/07/01 12:14:34;;;;;;;3.00;2.80;;;27.60;57.40;;;;;;4955645;28;20481;-81
2023/07/01 12:17:03;;;;;;;3.00;2.80;;;27.60;57.50;;;;;;4970368;28;21079;-81
2023/07/01 12:19:32;;;;;;;3.20;2.90;;;27.60;57.70;;;;;;4970628;28;21008;-81
2023/07/01 12:22:01;;;;;;;3.67;3.33;;;27.60;57.70;;;;;;4969564;28;20467;-81
2023/07/01 12:24:31;;;;;;;3.70;3.40;;;27.60;57.80;;;;;;4967954;28;20468;-81
2023/07/01 12:27:02;;;;;;;3.83;3.20;;;27.60;57.90;;;;;;4966070;28;20466;-81
2023/07/01 12:29:30;;;;;;;3.13;2.93;;;27.70;58.20;;;;;;4968625;28;20555;-81
2023/07/01 12:32:00;;;;;;;3.10;2.80;;;27.90;57.70;;;;;;4968231;28;20612;-81
2023/07/01 12:34:29;;;;;;;3.67;3.47;;;27.90;57.40;;;;;;4968906;28;20468;-81
2023/07/01 12:36:59;;;;;;;2.80;2.60;;;28.00;57.40;;;;;;4969033;28;21071;-81
2023/07/01 12:39:28;;;;;;;3.60;3.20;;;28.00;57.40;;;;;;4971797;28;20488;-81
2023/07/01 12:41:58;;;;;;;2.70;2.50;;;27.90;57.50;;;;;;4971603;28;20463;-81
2023/07/01 12:44:27;;;;;;;3.60;3.30;;;27.90;57.60;;;;;;4974219;28;20504;-81
2023/07/01 12:46:55;;;;;;;3.03;2.83;;;27.90;57.70;;;;;;4973305;28;20467;-81
2023/07/01 12:49:26;;;;;;;2.57;2.37;;;28.00;57.60;;;;;;4973747;28;20449;-81
2023/07/01 12:51:54;;;;;;;2.80;2.60;;;28.10;57.40;;;;;;4973602;28;20449;-81
2023/07/01 12:54:23;;;;;;;2.73;2.53;;;28.10;57.10;;;;;;4972528;28;20856;-81
2023/07/01 12:56:56;;;;;;;2.77;2.57;;;28.10;57.20;;;;;;4971021;28;20482;-82
2023/07/01 12:59:24;;;;;;;2.60;2.40;;;28.10;56.90;;;;;;4970372;28;20472;-81